sensor_id;sensor_type;location;lat;lon;timestamp;pressure;altitude;pressure_sealevel;temperature;humidity
15914;BME280;8055;51.930;8.840;2024-02-15T00:01:00;76116.47;;;-145.72;100.00
15914;BME280;8055;51.930;8.840;2024-02-15T00:03:25;76116.47;;;-145.72;100.00
15914;BME280;8055;51.930;8.840;2024-02-15T00:05:51;76122.69;;;-145.72;100.00
15914;BME280;8055;51.930;8.840;2024-02-15T00:08:17;76122.69;;;-145.72;100.00
15914;BME280;8055;51.930;8.840;2024-02-15T00:10:44;76133.03;;;-145.72;100.00
15914;BME280;8055;51.930;8.840;2024-02-15T00:13:12;76116.47;;;-145.72;100.00
15914;BME280;8055;51.930;8.840;2024-02-15T00:15:37;76114.41;;;-145.72;100.00
15914;BME280;8055;51.930;8.840;2024-02-15T00:18:03;76110.25;;;-145.72;100.00
15914;BME280;8055;51.930;8.840;2024-02-15T00:20:28;76116.47;;;-145.72;100.00
15914;BME280;8055;51.930;8.840;2024-02-15T00:22:54;76110.25;;;-145.72;100.00
15914;BME280;8055;51.930;8.840;2024-02-15T00:25:21;76112.31;;;-145.72;100.00
15914;BME280;8055;51.930;8.840;2024-02-15T00:27:46;76116.47;;;-145.72;100.00
15914;BME280;8055;51.930;8.840;2024-02-15T00:30:12;76120.59;;;-145.72;100.00
15914;BME280;8055;51.930;8.840;2024-02-15T00:32:37;76116.47;;;-145.72;100.00
15914;BME280;8055;51.930;8.840;2024-02-15T00:35:04;76114.41;;;-145.72;100.00
15914;BME280;8055;51.930;8.840;2024-02-15T00:37:34;76108.19;;;-145.72;100.00
15914;BME280;8055;51.930;8.840;2024-02-15T00:40:00;76110.25;;;-145.72;100.00
15914;BME280;8055;51.930;8.840;2024-02-15T00:42:25;76116.47;;;-145.72;100.00
15914;BME280;8055;51.930;8.840;2024-02-15T00:44:51;76114.41;;;-145.72;100.00
15914;BME280;8055;51.930;8.840;2024-02-15T00:47:16;76118.53;;;-145.72;100.00
15914;BME280;8055;51.930;8.840;2024-02-15T00:49:44;76114.41;;;-145.72;100.00
15914;BME280;8055;51.930;8.840;2024-02-15T00:52:10;76110.25;;;-145.72;100.00
15914;BME280;8055;51.930;8.840;2024-02-15T00:54:35;76106.13;;;-145.72;100.00
15914;BME280;8055;51.930;8.840;2024-02-15T00:57:04;76106.13;;;-145.72;100.00
15914;BME280;8055;51.930;8.840;2024-02-15T00:59:30;76112.31;;;-145.72;100.00
15914;BME280;8055;51.930;8.840;2024-02-15T01:01:55;76114.41;;;-145.72;100.00
15914;BME280;8055;51.930;8.840;2024-02-15T01:04:21;76112.31;;;-145.72;100.00
15914;BME280;8055;51.930;8.840;2024-02-15T01:06:46;76126.81;;;-145.72;100.00
15914;BME280;8055;51.930;8.840;2024-02-15T01:09:12;76126.81;;;-145.72;100.00
15914;BME280;8055;51.930;8.840;2024-02-15T01:11:38;76133.03;;;-145.72;100.00
15914;BME280;8055;51.930;8.840;2024-02-15T01:14:03;76133.03;;;-145.72;100.00
15914;BME280;8055;51.930;8.840;2024-02-15T01:16:29;76124.75;;;-145.72;100.00
15914;BME280;8055;51.930;8.840;2024-02-15T01:18:54;76120.59;;;-145.72;100.00
15914;BME280;8055;51.930;8.840;2024-02-15T01:21:20;76118.53;;;-145.72;100.00
15914;BME280;8055;51.930;8.840;2024-02-15T01:23:47;76124.75;;;-145.72;100.00
15914;BME280;8055;51.930;8.840;2024-02-15T01:26:12;76110.25;;;-145.72;100.00
15914;BME280;8055;51.930;8.840;2024-02-15T01:28:39;76130.94;;;-145.72;100.00
15914;BME280;8055;51.930;8.840;2024-02-15T01:31:08;76124.75;;;-145.72;100.00
15914;BME280;8055;51.930;8.840;2024-02-15T01:33:37;76122.69;;;-145.72;100.00
15914;BME280;8055;51.930;8.840;2024-02-15T01:36:03;76122.69;;;-145.72;100.00
15914;BME280;8055;51.930;8.840;2024-02-15T01:38:29;76120.59;;;-145.72;100.00
15914;BME280;8055;51.930;8.840;2024-02-15T01:40:54;76124.75;;;-145.72;100.00
15914;BME280;8055;51.930;8.840;2024-02-15T01:43:20;76120.59;;;-145.72;100.00
15914;BME280;8055;51.930;8.840;2024-02-15T01:45:45;76126.81;;;-145.72;100.00
15914;BME280;8055;51.930;8.840;2024-02-15T01:48:13;76118.53;;;-145.72;100.00
15914;BME280;8055;51.930;8.840;2024-02-15T01:50:40;76114.41;;;-145.72;100.00
15914;BME280;8055;51.930;8.840;2024-02-15T01:53:07;76116.47;;;-145.72;100.00
15914;BME280;8055;51.930;8.840;2024-02-15T01:55:34;76122.69;;;-145.72;100.00
15914;BME280;8055;51.930;8.840;2024-02-15T01:58:00;76114.41;;;-145.72;100.00
15914;BME280;8055;51.930;8.840;2024-02-15T02:00:26;76114.41;;;-145.72;100.00
15914;BME280;8055;51.930;8.840;2024-02-15T02:02:53;76120.59;;;-145.72;100.00
15914;BME280;8055;51.930;8.840;2024-02-15T02:05:19;76118.53;;;-145.72;100.00
15914;BME280;8055;51.930;8.840;2024-02-15T02:07:45;76116.47;;;-145.72;100.00
15914;BME280;8055;51.930;8.840;2024-02-15T02:10:10;76120.59;;;-145.72;100.00
15914;BME280;8055;51.930;8.840;2024-02-15T02:12:38;76122.69;;;-145.72;100.00
15914;BME280;8055;51.930;8.840;2024-02-15T02:15:06;76116.47;;;-145.72;100.00
15914;BME280;8055;51.930;8.840;2024-02-15T02:17:32;76120.59;;;-145.72;100.00
15914;BME280;8055;51.930;8.840;2024-02-15T02:19:58;76126.81;;;-145.72;100.00
15914;BME280;8055;51.930;8.840;2024-02-15T02:22:23;76118.53;;;-145.72;100.00
15914;BME280;8055;51.930;8.840;2024-02-15T02:25:15;76118.53;;;-145.72;100.00
15914;BME280;8055;51.930;8.840;2024-02-15T02:27:41;76116.47;;;-145.72;100.00
15914;BME280;8055;51.930;8.840;2024-02-15T02:30:13;76112.31;;;-145.72;100.00
15914;BME280;8055;51.930;8.840;2024-02-15T02:32:47;76114.41;;;-145.72;100.00
15914;BME280;8055;51.930;8.840;2024-02-15T02:35:13;76122.69;;;-145.72;100.00
15914;BME280;8055;51.930;8.840;2024-02-15T02:37:41;76116.47;;;-145.72;100.00
15914;BME280;8055;51.930;8.840;2024-02-15T02:40:08;76106.13;;;-145.72;100.00
15914;BME280;8055;51.930;8.840;2024-02-15T02:42:47;76108.19;;;-145.72;100.00
15914;BME280;8055;51.930;8.840;2024-02-15T02:45:12;76112.31;;;-145.72;100.00
15914;BME280;8055;51.930;8.840;2024-02-15T02:47:37;76114.41;;;-145.72;100.00
15914;BME280;8055;51.930;8.840;2024-02-15T02:50:03;76114.41;;;-145.72;100.00
15914;BME280;8055;51.930;8.840;2024-02-15T02:52:28;76114.41;;;-145.72;100.00
15914;BME280;8055;51.930;8.840;2024-02-15T02:54:54;76112.31;;;-145.72;100.00
15914;BME280;8055;51.930;8.840;2024-02-15T02:57:19;76106.13;;;-145.72;100.00
15914;BME280;8055;51.930;8.840;2024-02-15T02:59:45;76108.19;;;-145.72;100.00
15914;BME280;8055;51.930;8.840;2024-02-15T03:02:10;76108.19;;;-145.72;100.00
15914;BME280;8055;51.930;8.840;2024-02-15T03:04:35;76114.41;;;-145.72;100.00
15914;BME280;8055;51.930;8.840;2024-02-15T03:07:01;76110.25;;;-145.72;100.00
15914;BME280;8055;51.930;8.840;2024-02-15T03:09:26;76114.41;;;-145.72;100.00
15914;BME280;8055;51.930;8.840;2024-02-15T03:11:54;76099.91;;;-145.72;100.00
15914;BME280;8055;51.930;8.840;2024-02-15T03:14:20;76101.97;;;-145.72;100.00
15914;BME280;8055;51.930;8.840;2024-02-15T03:16:45;76085.44;;;-145.72;100.00
15914;BME280;8055;51.930;8.840;2024-02-15T03:19:11;76089.56;;;-145.72;100.00
15914;BME280;8055;51.930;8.840;2024-02-15T03:21:37;76091.63;;;-145.72;100.00
15914;BME280;8055;51.930;8.840;2024-02-15T03:24:02;76089.56;;;-145.72;100.00
15914;BME280;8055;51.930;8.840;2024-02-15T03:26:31;76093.72;;;-145.72;100.00
15914;BME280;8055;51.930;8.840;2024-02-15T03:29:07;76091.63;;;-145.72;100.00
15914;BME280;8055;51.930;8.840;2024-02-15T03:31:34;76097.84;;;-145.72;100.00
15914;BME280;8055;51.930;8.840;2024-02-15T03:34:03;76099.91;;;-145.72;100.00
15914;BME280;8055;51.930;8.840;2024-02-15T03:36:28;76095.78;;;-145.72;100.00
15914;BME280;8055;51.930;8.840;2024-02-15T03:38:54;76104.06;;;-145.72;100.00
15914;BME280;8055;51.930;8.840;2024-02-15T03:41:20;76108.19;;;-145.72;100.00
15914;BME280;8055;51.930;8.840;2024-02-15T03:43:45;76101.97;;;-145.72;100.00
15914;BME280;8055;51.930;8.840;2024-02-15T03:46:12;76097.84;;;-145.72;100.00
15914;BME280;8055;51.930;8.840;2024-02-15T03:48:42;76106.13;;;-145.72;100.00
15914;BME280;8055;51.930;8.840;2024-02-15T03:51:09;76097.84;;;-145.72;100.00
15914;BME280;8055;51.930;8.840;2024-02-15T03:53:34;76099.91;;;-145.72;100.00
15914;BME280;8055;51.930;8.840;2024-02-15T03:56:03;76110.25;;;-145.72;100.00
15914;BME280;8055;51.930;8.840;2024-02-15T03:58:29;76097.84;;;-145.72;100.00
15914;BME280;8055;51.930;8.840;2024-02-15T04:00:58;76110.25;;;-145.72;100.00
15914;BME280;8055;51.930;8.840;2024-02-15T04:03:23;76110.25;;;-145.72;100.00
15914;BME280;8055;51.930;8.840;2024-02-15T04:05:49;76112.31;;;-145.72;100.00
15914;BME280;8055;51.930;8.840;2024-02-15T04:08:14;76108.19;;;-145.72;100.00
15914;BME280;8055;51.930;8.840;2024-02-15T04:10:40;76112.31;;;-145.72;100.00
15914;BME280;8055;51.930;8.840;2024-02-15T04:13:06;76112.31;;;-145.72;100.00
15914;BME280;8055;51.930;8.840;2024-02-15T04:15:32;76110.25;;;-145.72;100.00
15914;BME280;8055;51.930;8.840;2024-02-15T04:17:59;76110.25;;;-145.72;100.00
15914;BME280;8055;51.930;8.840;2024-02-15T04:20:25;76106.13;;;-145.72;100.00
15914;BME280;8055;51.930;8.840;2024-02-15T04:22:51;76106.13;;;-145.72;100.00
15914;BME280;8055;51.930;8.840;2024-02-15T04:25:17;76106.13;;;-145.72;100.00
15914;BME280;8055;51.930;8.840;2024-02-15T04:27:47;76106.13;;;-145.72;100.00
15914;BME280;8055;51.930;8.840;2024-02-15T04:30:13;76104.06;;;-145.72;100.00
15914;BME280;8055;51.930;8.840;2024-02-15T04:32:40;76112.31;;;-145.72;100.00
15914;BME280;8055;51.930;8.840;2024-02-15T04:35:06;76116.47;;;-145.72;100.00
15914;BME280;8055;51.930;8.840;2024-02-15T04:37:32;76112.31;;;-145.72;100.00
15914;BME280;8055;51.930;8.840;2024-02-15T04:40:00;76114.41;;;-145.72;100.00
15914;BME280;8055;51.930;8.840;2024-02-15T04:42:38;76106.13;;;-145.72;100.00
15914;BME280;8055;51.930;8.840;2024-02-15T04:45:08;76097.84;;;-145.72;100.00
15914;BME280;8055;51.930;8.840;2024-02-15T04:47:35;76106.13;;;-145.72;100.00
15914;BME280;8055;51.930;8.840;2024-02-15T04:50:03;76106.13;;;-145.72;100.00
15914;BME280;8055;51.930;8.840;2024-02-15T04:52:31;76106.13;;;-145.72;100.00
15914;BME280;8055;51.930;8.840;2024-02-15T04:54:57;76097.84;;;-145.72;100.00
15914;BME280;8055;51.930;8.840;2024-02-15T04:57:25;76099.91;;;-145.72;100.00
15914;BME280;8055;51.930;8.840;2024-02-15T04:59:54;76106.13;;;-145.72;100.00
15914;BME280;8055;51.930;8.840;2024-02-15T05:02:19;76101.97;;;-145.72;100.00
15914;BME280;8055;51.930;8.840;2024-02-15T05:04:47;76104.06;;;-145.72;100.00
15914;BME280;8055;51.930;8.840;2024-02-15T05:07:13;76095.78;;;-145.72;100.00
15914;BME280;8055;51.930;8.840;2024-02-15T05:09:42;76106.13;;;-145.72;100.00
15914;BME280;8055;51.930;8.840;2024-02-15T05:12:07;76095.78;;;-145.72;100.00
15914;BME280;8055;51.930;8.840;2024-02-15T05:14:33;76093.72;;;-145.72;100.00
15914;BME280;8055;51.930;8.840;2024-02-15T05:17:01;76097.84;;;-145.72;100.00
15914;BME280;8055;51.930;8.840;2024-02-15T05:19:27;76097.84;;;-145.72;100.00
15914;BME280;8055;51.930;8.840;2024-02-15T05:21:52;76093.72;;;-145.72;100.00
15914;BME280;8055;51.930;8.840;2024-02-15T05:24:18;76097.84;;;-145.72;100.00
15914;BME280;8055;51.930;8.840;2024-02-15T05:26:45;76095.78;;;-145.72;100.00
15914;BME280;8055;51.930;8.840;2024-02-15T05:29:17;76091.63;;;-145.72;100.00
15914;BME280;8055;51.930;8.840;2024-02-15T05:31:42;76093.72;;;-145.72;100.00
15914;BME280;8055;51.930;8.840;2024-02-15T05:34:10;76091.63;;;-145.72;100.00
15914;BME280;8055;51.930;8.840;2024-02-15T05:36:39;76093.72;;;-145.72;100.00
15914;BME280;8055;51.930;8.840;2024-02-15T05:39:04;76091.63;;;-145.72;100.00
15914;BME280;8055;51.930;8.840;2024-02-15T05:41:30;76085.44;;;-145.72;100.00
15914;BME280;8055;51.930;8.840;2024-02-15T05:43:57;76087.50;;;-145.72;100.00
15914;BME280;8055;51.930;8.840;2024-02-15T05:46:23;76083.34;;;-145.72;100.00
15914;BME280;8055;51.930;8.840;2024-02-15T05:48:49;76085.44;;;-145.72;100.00
15914;BME280;8055;51.930;8.840;2024-02-15T05:51:15;76093.72;;;-145.72;100.00
15914;BME280;8055;51.930;8.840;2024-02-15T05:53:40;76093.72;;;-145.72;100.00
15914;BME280;8055;51.930;8.840;2024-02-15T05:56:07;76081.28;;;-145.72;100.00
15914;BME280;8055;51.930;8.840;2024-02-15T05:58:33;76089.56;;;-145.72;100.00
15914;BME280;8055;51.930;8.840;2024-02-15T06:00:59;76081.28;;;-145.72;100.00
15914;BME280;8055;51.930;8.840;2024-02-15T06:03:31;76075.09;;;-145.72;100.00
15914;BME280;8055;51.930;8.840;2024-02-15T06:06:02;76077.16;;;-145.72;100.00
15914;BME280;8055;51.930;8.840;2024-02-15T06:08:32;76081.28;;;-145.72;100.00
15914;BME280;8055;51.930;8.840;2024-02-15T06:10:57;76070.94;;;-145.72;100.00
15914;BME280;8055;51.930;8.840;2024-02-15T06:13:23;76079.22;;;-145.72;100.00
15914;BME280;8055;51.930;8.840;2024-02-15T06:15:50;76079.22;;;-145.72;100.00
15914;BME280;8055;51.930;8.840;2024-02-15T06:18:26;76077.16;;;-145.72;100.00
15914;BME280;8055;51.930;8.840;2024-02-15T06:20:55;76081.28;;;-145.72;100.00
15914;BME280;8055;51.930;8.840;2024-02-15T06:23:27;76083.34;;;-145.72;100.00
15914;BME280;8055;51.930;8.840;2024-02-15T06:25:54;76083.34;;;-145.72;100.00
15914;BME280;8055;51.930;8.840;2024-02-15T06:28:21;76093.72;;;-145.72;100.00
15914;BME280;8055;51.930;8.840;2024-02-15T06:31:07;76087.50;;;-145.72;100.00
15914;BME280;8055;51.930;8.840;2024-02-15T06:33:51;76091.63;;;-145.72;100.00
15914;BME280;8055;51.930;8.840;2024-02-15T06:36:39;76083.34;;;-145.72;100.00
15914;BME280;8055;51.930;8.840;2024-02-15T06:39:23;76081.28;;;-145.72;100.00
15914;BME280;8055;51.930;8.840;2024-02-15T06:42:13;76073.00;;;-145.72;100.00
15914;BME280;8055;51.930;8.840;2024-02-15T06:44:47;76073.00;;;-145.72;100.00
15914;BME280;8055;51.930;8.840;2024-02-15T06:47:13;76079.22;;;-145.72;100.00
15914;BME280;8055;51.930;8.840;2024-02-15T06:49:42;76081.28;;;-145.72;100.00
15914;BME280;8055;51.930;8.840;2024-02-15T06:52:09;76075.09;;;-145.72;100.00
15914;BME280;8055;51.930;8.840;2024-02-15T06:54:39;76079.22;;;-145.72;100.00
15914;BME280;8055;51.930;8.840;2024-02-15T06:57:05;76070.94;;;-145.72;100.00
15914;BME280;8055;51.930;8.840;2024-02-15T06:59:31;76068.88;;;-145.72;100.00
15914;BME280;8055;51.930;8.840;2024-02-15T07:01:58;76073.00;;;-145.72;100.00
15914;BME280;8055;51.930;8.840;2024-02-15T07:04:23;76073.00;;;-145.72;100.00
15914;BME280;8055;51.930;8.840;2024-02-15T07:06:51;76068.88;;;-145.72;100.00
15914;BME280;8055;51.930;8.840;2024-02-15T07:09:19;76064.72;;;-145.72;100.00
15914;BME280;8055;51.930;8.840;2024-02-15T07:11:45;76070.94;;;-145.72;100.00
15914;BME280;8055;51.930;8.840;2024-02-15T07:14:12;76070.94;;;-145.72;100.00
15914;BME280;8055;51.930;8.840;2024-02-15T07:16:38;76068.88;;;-145.72;100.00
15914;BME280;8055;51.930;8.840;2024-02-15T07:19:03;76073.00;;;-145.72;100.00
15914;BME280;8055;51.930;8.840;2024-02-15T07:21:29;76060.59;;;-145.72;100.00
15914;BME280;8055;51.930;8.840;2024-02-15T07:23:55;76060.59;;;-145.72;100.00
15914;BME280;8055;51.930;8.840;2024-02-15T07:26:23;76056.47;;;-145.72;100.00
15914;BME280;8055;51.930;8.840;2024-02-15T07:28:59;76054.38;;;-145.72;100.00
15914;BME280;8055;51.930;8.840;2024-02-15T07:31:28;76056.47;;;-145.72;100.00
15914;BME280;8055;51.930;8.840;2024-02-15T07:33:57;76054.38;;;-145.72;100.00
15914;BME280;8055;51.930;8.840;2024-02-15T07:36:23;76048.19;;;-145.72;100.00
15914;BME280;8055;51.930;8.840;2024-02-15T07:38:52;76056.47;;;-145.72;100.00
15914;BME280;8055;51.930;8.840;2024-02-15T07:41:19;76064.72;;;-145.72;100.00
15914;BME280;8055;51.930;8.840;2024-02-15T07:43:47;76058.53;;;-145.72;100.00
15914;BME280;8055;51.930;8.840;2024-02-15T07:46:13;76058.53;;;-145.72;100.00
15914;BME280;8055;51.930;8.840;2024-02-15T07:48:42;76068.88;;;-145.72;100.00
15914;BME280;8055;51.930;8.840;2024-02-15T07:51:12;76066.81;;;-145.72;100.00
15914;BME280;8055;51.930;8.840;2024-02-15T07:53:38;76064.72;;;-145.72;100.00
15914;BME280;8055;51.930;8.840;2024-02-15T07:56:04;76070.94;;;-145.72;100.00
15914;BME280;8055;51.930;8.840;2024-02-15T07:58:30;76062.66;;;-145.72;100.00
15914;BME280;8055;51.930;8.840;2024-02-15T08:00:56;76064.72;;;-145.72;100.00
15914;BME280;8055;51.930;8.840;2024-02-15T08:03:21;76050.25;;;-145.72;100.00
15914;BME280;8055;51.930;8.840;2024-02-15T08:05:47;76054.38;;;-145.72;100.00
15914;BME280;8055;51.930;8.840;2024-02-15T08:08:12;76039.91;;;-145.72;100.00
15914;BME280;8055;51.930;8.840;2024-02-15T08:10:38;76033.69;;;-145.72;100.00
15914;BME280;8055;51.930;8.840;2024-02-15T08:13:04;76033.69;;;-145.72;100.00
15914;BME280;8055;51.930;8.840;2024-02-15T08:15:30;76029.56;;;-145.72;100.00
15914;BME280;8055;51.930;8.840;2024-02-15T08:17:55;76019.22;;;-145.72;100.00
15914;BME280;8055;51.930;8.840;2024-02-15T08:20:21;75996.44;;;-145.72;100.00
15914;BME280;8055;51.930;8.840;2024-02-15T08:22:47;75992.31;;;-145.72;100.00
15914;BME280;8055;51.930;8.840;2024-02-15T08:25:13;75981.97;;;-145.72;100.00
15914;BME280;8055;51.930;8.840;2024-02-15T08:27:42;75975.75;;;-145.72;100.00
15914;BME280;8055;51.930;8.840;2024-02-15T08:30:13;75965.41;;;-145.72;100.00
15914;BME280;8055;51.930;8.840;2024-02-15T08:32:42;75963.34;;;-145.72;100.00
15914;BME280;8055;51.930;8.840;2024-02-15T08:35:09;75957.13;;;-145.72;100.00
15914;BME280;8055;51.930;8.840;2024-02-15T08:37:35;75957.13;;;-145.72;100.00
15914;BME280;8055;51.930;8.840;2024-02-15T08:40:03;75950.91;;;-145.72;100.00
15914;BME280;8055;51.930;8.840;2024-02-15T08:42:29;75953.00;;;-145.72;100.00
15914;BME280;8055;51.930;8.840;2024-02-15T08:44:55;75953.00;;;-145.72;100.00
15914;BME280;8055;51.930;8.840;2024-02-15T08:47:20;75948.84;;;-145.72;100.00
15914;BME280;8055;51.930;8.840;2024-02-15T08:49:46;75944.72;;;-145.72;100.00
15914;BME280;8055;51.930;8.840;2024-02-15T08:52:11;75942.63;;;-145.72;100.00
15914;BME280;8055;51.930;8.840;2024-02-15T08:54:37;75936.44;;;-145.72;100.00
15914;BME280;8055;51.930;8.840;2024-02-15T08:57:06;75946.78;;;-145.72;100.00
15914;BME280;8055;51.930;8.840;2024-02-15T08:59:31;75946.78;;;-145.72;100.00
15914;BME280;8055;51.930;8.840;2024-02-15T09:01:57;75946.78;;;-145.72;100.00
15914;BME280;8055;51.930;8.840;2024-02-15T09:04:22;75950.91;;;-145.72;100.00
15914;BME280;8055;51.930;8.840;2024-02-15T09:06:50;75961.25;;;-145.72;100.00
15914;BME280;8055;51.930;8.840;2024-02-15T09:09:16;75965.41;;;-145.72;100.00
15914;BME280;8055;51.930;8.840;2024-02-15T09:11:42;75959.19;;;-145.72;100.00
15914;BME280;8055;51.930;8.840;2024-02-15T09:14:07;75965.41;;;-145.72;100.00
15914;BME280;8055;51.930;8.840;2024-02-15T09:16:36;75963.34;;;-145.72;100.00
15914;BME280;8055;51.930;8.840;2024-02-15T09:19:01;75961.25;;;-145.72;100.00
15914;BME280;8055;51.930;8.840;2024-02-15T09:21:27;75961.25;;;-145.72;100.00
15914;BME280;8055;51.930;8.840;2024-02-15T09:23:54;75944.72;;;-145.72;100.00
15914;BME280;8055;51.930;8.840;2024-02-15T09:26:19;75953.00;;;-145.72;100.00
15914;BME280;8055;51.930;8.840;2024-02-15T09:28:45;75948.84;;;-145.72;100.00
15914;BME280;8055;51.930;8.840;2024-02-15T09:31:14;75948.84;;;-145.72;100.00
15914;BME280;8055;51.930;8.840;2024-02-15T09:33:40;75950.91;;;-145.72;100.00
15914;BME280;8055;51.930;8.840;2024-02-15T09:36:06;75946.78;;;-145.72;100.00
15914;BME280;8055;51.930;8.840;2024-02-15T09:38:31;75955.06;;;-145.72;100.00
15914;BME280;8055;51.930;8.840;2024-02-15T09:40:56;75965.41;;;-145.72;100.00
15914;BME280;8055;51.930;8.840;2024-02-15T09:43:22;75957.13;;;-145.72;100.00
15914;BME280;8055;51.930;8.840;2024-02-15T09:45:51;75955.06;;;-145.72;100.00
15914;BME280;8055;51.930;8.840;2024-02-15T09:48:18;75955.06;;;-145.72;100.00
15914;BME280;8055;51.930;8.840;2024-02-15T09:50:44;75950.91;;;-145.72;100.00
15914;BME280;8055;51.930;8.840;2024-02-15T09:53:12;75955.06;;;-145.72;100.00
15914;BME280;8055;51.930;8.840;2024-02-15T09:55:39;75946.78;;;-145.72;100.00
15914;BME280;8055;51.930;8.840;2024-02-15T09:58:07;75948.84;;;-145.72;100.00
15914;BME280;8055;51.930;8.840;2024-02-15T10:00:34;75959.19;;;-145.72;100.00
15914;BME280;8055;51.930;8.840;2024-02-15T10:03:00;75953.00;;;-145.72;100.00
15914;BME280;8055;51.930;8.840;2024-02-15T10:05:27;75955.06;;;-145.72;100.00
15914;BME280;8055;51.930;8.840;2024-02-15T10:07:53;75961.25;;;-145.72;100.00
15914;BME280;8055;51.930;8.840;2024-02-15T10:10:19;75961.25;;;-145.72;100.00
15914;BME280;8055;51.930;8.840;2024-02-15T10:12:53;75969.53;;;-145.72;100.00
15914;BME280;8055;51.930;8.840;2024-02-15T10:15:35;75967.47;;;-145.72;100.00
15914;BME280;8055;51.930;8.840;2024-02-15T10:18:02;75969.53;;;-145.72;100.00
15914;BME280;8055;51.930;8.840;2024-02-15T10:20:28;75965.41;;;-145.72;100.00
15914;BME280;8055;51.930;8.840;2024-02-15T10:25:29;75963.34;;;-145.72;100.00
15914;BME280;8055;51.930;8.840;2024-02-15T10:28:20;75967.47;;;-145.72;100.00
15914;BME280;8055;51.930;8.840;2024-02-15T10:30:48;75969.53;;;-145.72;100.00
15914;BME280;8055;51.930;8.840;2024-02-15T10:33:29;75965.41;;;-145.72;100.00
15914;BME280;8055;51.930;8.840;2024-02-15T10:36:08;75969.53;;;-145.72;100.00
15914;BME280;8055;51.930;8.840;2024-02-15T10:38:33;75967.47;;;-145.72;100.00
15914;BME280;8055;51.930;8.840;2024-02-15T10:41:08;75961.25;;;-145.72;100.00
15914;BME280;8055;51.930;8.840;2024-02-15T10:43:33;75965.41;;;-145.72;100.00
15914;BME280;8055;51.930;8.840;2024-02-15T10:46:00;75967.47;;;-145.72;100.00
15914;BME280;8055;51.930;8.840;2024-02-15T10:48:26;75971.63;;;-145.72;100.00
15914;BME280;8055;51.930;8.840;2024-02-15T10:50:56;75961.25;;;-145.72;100.00
15914;BME280;8055;51.930;8.840;2024-02-15T10:53:28;75961.25;;;-145.72;100.00
15914;BME280;8055;51.930;8.840;2024-02-15T10:59:18;75950.91;;;-145.72;100.00
15914;BME280;8055;51.930;8.840;2024-02-15T11:01:46;75957.13;;;-145.72;100.00
15914;BME280;8055;51.930;8.840;2024-02-15T11:04:14;75959.19;;;-145.72;100.00
15914;BME280;8055;51.930;8.840;2024-02-15T11:06:42;75961.25;;;-145.72;100.00
15914;BME280;8055;51.930;8.840;2024-02-15T11:09:10;75959.19;;;-145.72;100.00
15914;BME280;8055;51.930;8.840;2024-02-15T11:11:37;75961.25;;;-145.72;100.00
15914;BME280;8055;51.930;8.840;2024-02-15T11:14:26;75961.25;;;-145.72;100.00
15914;BME280;8055;51.930;8.840;2024-02-15T11:16:52;75965.41;;;-145.72;100.00
15914;BME280;8055;51.930;8.840;2024-02-15T11:19:39;75959.19;;;-145.72;100.00
15914;BME280;8055;51.930;8.840;2024-02-15T11:22:09;75965.41;;;-145.72;100.00
15914;BME280;8055;51.930;8.840;2024-02-15T11:24:36;75967.47;;;-145.72;100.00
15914;BME280;8055;51.930;8.840;2024-02-15T11:27:03;75959.19;;;-145.72;100.00
15914;BME280;8055;51.930;8.840;2024-02-15T11:32:34;75953.00;;;-145.72;100.00
15914;BME280;8055;51.930;8.840;2024-02-15T11:35:06;75942.63;;;-145.72;100.00
15914;BME280;8055;51.930;8.840;2024-02-15T11:43:06;75936.44;;;-145.72;100.00
15914;BME280;8055;51.930;8.840;2024-02-15T11:45:32;75934.38;;;-145.72;100.00
15914;BME280;8055;51.930;8.840;2024-02-15T11:48:10;75938.50;;;-145.72;100.00
15914;BME280;8055;51.930;8.840;2024-02-15T11:50:39;75953.00;;;-145.72;100.00
15914;BME280;8055;51.930;8.840;2024-02-15T11:53:06;75946.78;;;-145.72;100.00
15914;BME280;8055;51.930;8.840;2024-02-15T11:55:35;75950.91;;;-145.72;100.00
15914;BME280;8055;51.930;8.840;2024-02-15T11:58:03;75948.84;;;-145.72;100.00
15914;BME280;8055;51.930;8.840;2024-02-15T12:00:34;75944.72;;;-145.72;100.00
15914;BME280;8055;51.930;8.840;2024-02-15T12:03:19;75930.22;;;-145.72;100.00
15914;BME280;8055;51.930;8.840;2024-02-15T12:06:03;75924.03;;;-145.72;100.00
15914;BME280;8055;51.930;8.840;2024-02-15T12:08:49;75911.59;;;-145.72;100.00
15914;BME280;8055;51.930;8.840;2024-02-15T12:11:33;75897.13;;;-145.72;100.00
15914;BME280;8055;51.930;8.840;2024-02-15T12:14:18;75888.84;;;-145.72;100.00
15914;BME280;8055;51.930;8.840;2024-02-15T12:17:10;75882.63;;;-145.72;100.00
15914;BME280;8055;51.930;8.840;2024-02-15T12:19:56;75870.22;;;-145.72;100.00
15914;BME280;8055;51.930;8.840;2024-02-15T12:22:28;75849.53;;;-145.72;100.00
15914;BME280;8055;51.930;8.840;2024-02-15T12:24:59;75849.53;;;-145.72;100.00
15914;BME280;8055;51.930;8.840;2024-02-15T12:27:26;75847.44;;;-145.72;100.00
15914;BME280;8055;51.930;8.840;2024-02-15T12:29:59;75837.09;;;-145.72;100.00
15914;BME280;8055;51.930;8.840;2024-02-15T12:32:26;75841.25;;;-145.72;100.00
15914;BME280;8055;51.930;8.840;2024-02-15T12:35:10;75845.38;;;-145.72;100.00
15914;BME280;8055;51.930;8.840;2024-02-15T12:37:41;75843.31;;;-145.72;100.00
15914;BME280;8055;51.930;8.840;2024-02-15T12:40:13;75853.66;;;-145.72;100.00
15914;BME280;8055;51.930;8.840;2024-02-15T12:42:45;75847.44;;;-145.72;100.00
15914;BME280;8055;51.930;8.840;2024-02-15T12:45:19;75843.31;;;-145.72;100.00
15914;BME280;8055;51.930;8.840;2024-02-15T12:47:55;75828.84;;;-145.72;100.00
15914;BME280;8055;51.930;8.840;2024-02-15T12:50:22;75830.91;;;-145.72;100.00
15914;BME280;8055;51.930;8.840;2024-02-15T12:52:49;75826.75;;;-145.72;100.00
15914;BME280;8055;51.930;8.840;2024-02-15T12:57:47;75824.69;;;-145.72;100.00
15914;BME280;8055;51.930;8.840;2024-02-15T13:00:17;75816.41;;;-145.72;100.00
15914;BME280;8055;51.930;8.840;2024-02-15T13:02:51;75795.72;;;-145.72;100.00